Time;durP1;ratioP1;P1;durP2;ratioP2;P2;SDS_P1;SDS_P2;PMS_P1;PMS_P2;Temp;Humidity;BMP_temperature;BMP_pressure;BME280_temperature;BME280_humidity;BME280_pressure;Samples;Min_cycle;Max_cycle;Signal;HPM_P1;HPM_P2
2023/09/17 00:01:09;;;;;;;9.23;6.03;;;18.40;99.90;;;;;;5071881;28;20175;-69
2023/09/17 00:03:35;;;;;;;9.73;5.93;;;18.30;99.90;;;;;;5071691;28;20568;-69
2023/09/17 00:06:01;;;;;;;10.80;6.60;;;18.30;99.90;;;;;;5074339;28;20284;-68
2023/09/17 00:08:27;;;;;;;12.43;6.70;;;18.20;99.90;;;;;;5076411;28;20183;-69
2023/09/17 00:10:52;;;;;;;11.33;6.77;;;18.10;99.90;;;;;;5071380;28;20631;-70
2023/09/17 00:13:19;;;;;;;10.67;6.73;;;18.10;99.90;;;;;;5071609;28;20695;-70
2023/09/17 00:15:45;;;;;;;11.83;6.70;;;18.10;99.90;;;;;;5071312;28;20241;-69
2023/09/17 00:18:11;;;;;;;10.57;6.93;;;18.00;99.90;;;;;;5070953;28;20186;-69
2023/09/17 00:20:37;;;;;;;8.67;6.63;;;18.00;99.90;;;;;;5071636;28;20196;-69
2023/09/17 00:23:03;;;;;;;8.73;6.33;;;18.00;99.90;;;;;;5071204;28;20729;-69
2023/09/17 00:25:28;;;;;;;10.97;6.53;;;18.00;99.90;;;;;;5070169;28;20678;-69
2023/09/17 00:27:54;;;;;;;10.77;6.60;;;17.90;99.90;;;;;;5070425;28;20221;-69
2023/09/17 00:30:19;;;;;;;10.97;6.33;;;17.90;99.90;;;;;;5071021;28;20202;-70
2023/09/17 00:32:45;;;;;;;12.00;6.30;;;17.90;99.90;;;;;;5070784;28;20319;-69
2023/09/17 00:35:11;;;;;;;12.13;6.73;;;17.80;99.90;;;;;;5070977;28;20281;-69
2023/09/17 00:37:37;;;;;;;9.03;6.43;;;17.80;99.90;;;;;;5070566;28;20650;-69
2023/09/17 00:40:06;;;;;;;9.50;6.17;;;17.70;99.90;;;;;;5070839;28;20183;-69
2023/09/17 00:42:31;;;;;;;11.57;6.93;;;17.60;99.90;;;;;;5070970;28;20229;-69
2023/09/17 00:44:57;;;;;;;8.90;6.50;;;17.50;99.90;;;;;;5070638;28;20695;-70
2023/09/17 00:47:22;;;;;;;15.70;6.80;;;17.50;99.90;;;;;;5070857;28;20205;-70
2023/09/17 00:49:48;;;;;;;11.50;7.17;;;17.40;99.90;;;;;;5069763;28;20649;-69
2023/09/17 00:52:19;;;;;;;15.03;6.60;;;17.40;99.90;;;;;;5070852;28;20190;-69
2023/09/17 00:54:47;;;;;;;11.10;6.00;;;17.30;99.90;;;;;;5070517;28;20561;-70
2023/09/17 00:57:15;;;;;;;9.87;6.17;;;17.20;99.90;;;;;;5070720;28;20178;-70
2023/09/17 00:59:41;;;;;;;12.13;6.47;;;17.20;99.90;;;;;;5069714;28;20179;-70
2023/09/17 01:02:07;;;;;;;14.43;7.23;;;17.10;99.90;;;;;;5069374;28;20204;-70
2023/09/17 01:04:33;;;;;;;10.57;6.13;;;17.10;99.90;;;;;;5070376;28;20206;-70
2023/09/17 01:06:59;;;;;;;8.80;5.80;;;17.00;99.90;;;;;;5070532;28;20646;-69
2023/09/17 01:09:29;;;;;;;10.17;6.50;;;17.00;99.90;;;;;;5069878;28;20210;-70
2023/09/17 01:11:55;;;;;;;9.43;6.20;;;17.00;99.90;;;;;;5070251;28;20297;-70
2023/09/17 01:14:21;;;;;;;13.03;6.63;;;17.00;99.90;;;;;;5070391;28;20290;-70
2023/09/17 01:16:47;;;;;;;9.97;6.37;;;16.90;99.90;;;;;;5070285;28;20178;-69
2023/09/17 01:19:33;;;;;;;11.80;6.60;;;16.90;99.90;;;;;;5069579;28;20261;-69
2023/09/17 01:22:13;;;;;;;11.90;6.63;;;16.80;99.90;;;;;;5069991;28;20198;-70
2023/09/17 01:25:11;;;;;;;11.30;6.17;;;16.80;99.90;;;;;;5070345;28;20202;-69
2023/09/17 01:27:45;;;;;;;10.40;6.50;;;16.80;99.90;;;;;;5069778;28;20622;-69
2023/09/17 01:30:21;;;;;;;8.13;6.33;;;16.80;99.90;;;;;;5062685;28;20236;-70
2023/09/17 01:32:47;;;;;;;13.63;6.80;;;16.80;99.90;;;;;;5070195;28;20629;-69
2023/09/17 01:35:15;;;;;;;8.63;6.17;;;16.80;99.90;;;;;;5068731;28;20293;-70
2023/09/17 01:37:54;;;;;;;10.13;6.33;;;16.80;99.90;;;;;;5077734;28;20208;-70
2023/09/17 01:40:22;;;;;;;10.63;6.33;;;16.70;99.90;;;;;;5072239;28;20239;-70
2023/09/17 01:42:50;;;;;;;12.17;7.07;;;16.70;99.90;;;;;;5069821;28;20209;-70
2023/09/17 01:45:16;;;;;;;15.17;7.03;;;16.70;99.90;;;;;;5069851;28;20273;-70
2023/09/17 01:47:44;;;;;;;10.97;6.33;;;16.80;99.90;;;;;;5069492;28;20263;-70
2023/09/17 01:50:11;;;;;;;10.77;6.43;;;16.70;99.90;;;;;;5076917;28;20863;-69
2023/09/17 01:52:39;;;;;;;8.23;6.23;;;16.80;99.90;;;;;;5070079;28;20645;-69
2023/09/17 01:55:06;;;;;;;10.63;6.20;;;16.90;99.90;;;;;;5069553;28;20198;-70
2023/09/17 01:57:31;;;;;;;12.80;6.53;;;16.90;99.90;;;;;;5070028;28;20182;-69
2023/09/17 01:59:57;;;;;;;13.87;6.50;;;16.90;99.90;;;;;;5069183;28;20707;-70
2023/09/17 02:02:23;;;;;;;10.80;6.03;;;17.00;99.90;;;;;;5070310;28;20182;-70
2023/09/17 02:04:49;;;;;;;12.27;6.43;;;17.00;99.90;;;;;;5069625;28;20285;-70
2023/09/17 02:07:18;;;;;;;11.67;6.27;;;17.00;99.90;;;;;;5069933;28;20269;-69
2023/09/17 02:09:44;;;;;;;10.60;6.17;;;17.10;99.90;;;;;;5068987;28;20189;-69
2023/09/17 02:12:09;;;;;;;10.40;6.77;;;17.00;99.90;;;;;;5069899;28;20650;-70
2023/09/17 02:14:35;;;;;;;11.67;6.43;;;17.00;99.90;;;;;;5069752;28;20209;-69
2023/09/17 02:17:03;;;;;;;9.40;6.30;;;17.00;99.90;;;;;;5069643;28;20194;-70
2023/09/17 02:19:28;;;;;;;10.87;6.87;;;17.10;99.90;;;;;;5068837;28;20203;-69
2023/09/17 02:21:54;;;;;;;17.33;7.37;;;17.10;99.90;;;;;;5069646;28;20187;-69
2023/09/17 02:24:20;;;;;;;12.10;7.20;;;17.00;99.90;;;;;;5069692;28;20234;-69
2023/09/17 02:26:46;;;;;;;11.67;6.93;;;17.00;99.90;;;;;;5069532;28;20197;-69
2023/09/17 02:29:12;;;;;;;10.63;6.93;;;17.00;99.90;;;;;;5068950;28;20178;-69
2023/09/17 02:31:37;;;;;;;12.13;7.10;;;17.00;99.90;;;;;;5069689;28;20348;-70
2023/09/17 02:34:03;;;;;;;8.63;6.77;;;17.00;99.90;;;;;;5069356;28;20183;-70
2023/09/17 02:36:29;;;;;;;8.67;6.50;;;17.00;99.90;;;;;;5069744;28;20253;-70
2023/09/17 02:38:55;;;;;;;10.83;6.57;;;17.00;99.90;;;;;;5068687;28;20217;-70
2023/09/17 02:41:21;;;;;;;12.57;6.70;;;17.00;99.90;;;;;;5069500;28;20189;-70
2023/09/17 02:43:46;;;;;;;11.27;6.67;;;17.00;99.90;;;;;;5069346;28;20187;-70
2023/09/17 02:46:12;;;;;;;9.70;6.93;;;17.00;99.90;;;;;;5069531;28;20201;-70
2023/09/17 02:48:38;;;;;;;10.03;6.77;;;17.00;99.90;;;;;;5068884;28;20274;-69
2023/09/17 02:51:03;;;;;;;14.90;6.67;;;17.00;99.90;;;;;;5069243;28;20570;-69
2023/09/17 02:53:29;;;;;;;10.10;7.00;;;17.00;99.90;;;;;;5069603;28;20188;-69
2023/09/17 02:55:56;;;;;;;10.63;6.57;;;17.00;99.90;;;;;;5070592;28;20574;-70
2023/09/17 02:58:23;;;;;;;14.13;6.93;;;17.00;99.90;;;;;;5072264;28;20252;-70
2023/09/17 03:00:49;;;;;;;8.83;6.37;;;17.00;99.90;;;;;;5072885;28;20191;-70
2023/09/17 03:03:15;;;;;;;10.87;6.83;;;16.90;99.90;;;;;;5072939;28;20270;-69
2023/09/17 03:05:43;;;;;;;11.37;6.47;;;16.90;99.90;;;;;;5072701;28;20206;-69
2023/09/17 03:08:09;;;;;;;12.40;7.10;;;16.90;99.90;;;;;;5064242;28;20528;-70
2023/09/17 03:10:41;;;;;;;10.53;7.00;;;16.90;99.90;;;;;;5072753;28;20264;-70
2023/09/17 03:13:09;;;;;;;9.67;6.07;;;16.90;99.90;;;;;;5064549;28;20714;-69
2023/09/17 03:15:35;;;;;;;12.37;7.47;;;16.90;99.90;;;;;;5072701;28;20202;-69
2023/09/17 03:18:00;;;;;;;13.50;6.83;;;16.90;99.90;;;;;;5071830;28;20202;-70
2023/09/17 03:20:27;;;;;;;15.70;6.93;;;16.80;99.90;;;;;;5072595;28;20226;-69
2023/09/17 03:22:53;;;;;;;12.47;6.90;;;16.80;99.90;;;;;;5072508;28;20570;-69
2023/09/17 03:25:19;;;;;;;10.73;7.27;;;16.80;99.90;;;;;;5072500;28;20198;-70
2023/09/17 03:27:45;;;;;;;12.40;7.20;;;16.80;99.90;;;;;;5071543;28;20187;-69
2023/09/17 03:30:12;;;;;;;11.07;6.87;;;16.80;99.90;;;;;;5072592;28;20213;-69
2023/09/17 03:32:38;;;;;;;13.07;7.00;;;16.70;99.90;;;;;;5072365;28;20186;-69
2023/09/17 03:35:05;;;;;;;11.03;7.30;;;16.80;99.90;;;;;;5072064;28;20233;-69
2023/09/17 03:37:31;;;;;;;12.20;7.20;;;16.80;99.90;;;;;;5072189;28;20232;-69
2023/09/17 03:40:10;;;;;;;12.23;7.13;;;16.80;99.90;;;;;;5071511;28;20562;-70
2023/09/17 03:42:37;;;;;;;13.27;7.17;;;16.80;99.90;;;;;;5072343;28;20190;-70
2023/09/17 03:45:09;;;;;;;14.37;7.20;;;16.90;99.90;;;;;;5071951;28;20209;-70
2023/09/17 03:47:41;;;;;;;14.20;7.30;;;16.90;99.90;;;;;;5071539;28;20182;-70
2023/09/17 03:50:13;;;;;;;8.37;6.60;;;16.90;99.90;;;;;;5071420;28;20206;-69
2023/09/17 03:52:42;;;;;;;13.00;7.27;;;16.90;99.90;;;;;;5080605;28;20281;-70
2023/09/17 03:55:08;;;;;;;12.20;6.97;;;16.90;99.90;;;;;;5063715;28;20194;-69
2023/09/17 03:57:36;;;;;;;12.83;6.90;;;17.00;99.90;;;;;;5078534;28;20188;-70
2023/09/17 04:00:06;;;;;;;10.23;6.70;;;17.00;99.90;;;;;;5080977;28;20186;-69
2023/09/17 04:02:36;;;;;;;12.67;8.00;;;17.00;99.90;;;;;;5071836;28;20224;-69
2023/09/17 04:05:11;;;;;;;11.20;6.80;;;17.10;99.90;;;;;;5079863;28;20203;-68
2023/09/17 04:07:37;;;;;;;10.40;6.83;;;17.10;99.90;;;;;;5078245;28;20191;-70
2023/09/17 04:10:05;;;;;;;11.30;7.17;;;17.10;99.90;;;;;;5088739;28;20190;-69
2023/09/17 04:12:32;;;;;;;11.17;6.80;;;17.10;99.90;;;;;;5071697;28;20645;-69
2023/09/17 04:14:58;;;;;;;10.23;6.57;;;17.10;99.90;;;;;;5073819;28;20245;-69
2023/09/17 04:17:24;;;;;;;11.73;7.13;;;17.10;99.90;;;;;;5091683;28;20557;-68
2023/09/17 04:19:50;;;;;;;15.50;6.70;;;17.10;99.90;;;;;;5089804;28;20668;-70
2023/09/17 04:22:16;;;;;;;15.93;6.80;;;17.10;99.90;;;;;;5071557;28;20210;-70
2023/09/17 04:24:42;;;;;;;12.83;7.07;;;17.20;99.90;;;;;;5080716;28;20693;-69
2023/09/17 04:27:08;;;;;;;11.23;6.70;;;17.20;99.90;;;;;;5071618;28;20178;-69
2023/09/17 04:29:35;;;;;;;11.67;6.73;;;17.10;99.90;;;;;;5079173;28;20178;-69
2023/09/17 04:32:01;;;;;;;10.97;6.70;;;17.10;99.90;;;;;;5082011;28;20297;-69
2023/09/17 04:34:26;;;;;;;10.70;6.17;;;17.20;99.90;;;;;;5077315;28;20298;-68
2023/09/17 04:36:52;;;;;;;9.13;6.50;;;17.10;99.90;;;;;;5080819;28;20652;-69
2023/09/17 04:39:17;;;;;;;11.83;6.70;;;17.20;99.90;;;;;;5085874;28;20194;-69
2023/09/17 04:41:44;;;;;;;12.30;6.90;;;17.20;99.90;;;;;;5087964;28;20185;-69
2023/09/17 04:44:10;;;;;;;11.03;6.43;;;17.10;99.90;;;;;;5079432;28;20217;-69
2023/09/17 04:46:39;;;;;;;10.67;6.70;;;17.10;99.90;;;;;;5079411;28;20206;-70
2023/09/17 04:49:05;;;;;;;11.00;6.77;;;17.20;99.90;;;;;;5070012;28;20657;-69
2023/09/17 04:51:30;;;;;;;9.57;6.87;;;17.10;99.90;;;;;;5070876;28;20217;-69
2023/09/17 04:53:57;;;;;;;10.93;6.83;;;17.10;99.90;;;;;;5070822;28;20182;-69
2023/09/17 04:56:22;;;;;;;13.77;6.93;;;17.10;99.90;;;;;;5070765;28;20202;-69
2023/09/17 04:58:48;;;;;;;9.73;6.73;;;17.10;99.90;;;;;;5069870;28;20320;-69
2023/09/17 05:01:13;;;;;;;12.07;7.03;;;17.10;99.90;;;;;;5070709;28;20216;-69
2023/09/17 05:03:41;;;;;;;13.77;7.67;;;17.10;99.90;;;;;;5079313;28;20652;-70
2023/09/17 05:06:07;;;;;;;13.53;6.43;;;17.10;99.90;;;;;;5087300;28;20229;-69
2023/09/17 05:08:33;;;;;;;9.97;7.03;;;17.10;99.90;;;;;;5069869;28;20228;-69
2023/09/17 05:10:58;;;;;;;12.23;7.13;;;17.10;99.90;;;;;;5072535;28;20206;-69
2023/09/17 05:13:24;;;;;;;8.63;6.40;;;17.10;99.90;;;;;;5090755;28;20184;-69
2023/09/17 05:15:49;;;;;;;9.77;6.80;;;17.10;99.90;;;;;;5089532;28;20259;-69
2023/09/17 05:18:16;;;;;;;9.77;6.23;;;17.10;99.90;;;;;;5069165;28;20206;-69
2023/09/17 05:20:44;;;;;;;12.50;6.53;;;17.10;99.90;;;;;;5084929;28;20621;-69
2023/09/17 05:23:12;;;;;;;9.17;6.57;;;17.10;99.90;;;;;;5060128;28;20194;-69
2023/09/17 05:25:38;;;;;;;13.63;7.03;;;17.10;99.90;;;;;;5067902;28;20210;-69
2023/09/17 05:28:06;;;;;;;13.33;6.90;;;17.10;99.90;;;;;;5077189;28;20235;-69
2023/09/17 05:30:35;;;;;;;11.63;6.47;;;17.20;99.90;;;;;;5088387;28;20707;-69
2023/09/17 05:33:01;;;;;;;9.53;6.83;;;17.20;99.90;;;;;;5078317;28;20181;-69
2023/09/17 05:35:27;;;;;;;8.60;6.23;;;17.20;99.90;;;;;;5075413;28;20259;-69
2023/09/17 05:37:52;;;;;;;14.17;7.17;;;17.10;99.90;;;;;;5080781;28;20194;-69
2023/09/17 05:40:18;;;;;;;10.60;7.03;;;17.20;99.90;;;;;;5084998;28;20197;-69
2023/09/17 05:42:44;;;;;;;9.20;6.77;;;17.20;99.90;;;;;;5069499;28;20262;-69
2023/09/17 05:45:09;;;;;;;10.37;6.57;;;17.20;99.90;;;;;;5081277;28;20213;-69
2023/09/17 05:47:35;;;;;;;12.93;6.77;;;17.30;99.90;;;;;;5073667;28;20193;-69
2023/09/17 05:50:01;;;;;;;9.70;6.97;;;17.30;99.90;;;;;;5077511;28;20248;-69
2023/09/17 05:52:26;;;;;;;8.90;6.30;;;17.30;99.90;;;;;;5075530;28;20193;-69
2023/09/17 05:54:52;;;;;;;10.23;7.20;;;17.30;99.90;;;;;;5081154;28;20673;-69
2023/09/17 05:57:17;;;;;;;12.63;6.93;;;17.40;99.90;;;;;;5089582;28;20664;-69
2023/09/17 05:59:43;;;;;;;13.97;7.77;;;17.40;99.90;;;;;;5087665;28;20189;-69
2023/09/17 06:02:11;;;;;;;12.17;7.17;;;17.40;99.90;;;;;;5073179;28;20549;-69
2023/09/17 06:04:37;;;;;;;12.03;7.37;;;17.40;99.90;;;;;;5081190;28;20228;-69
2023/09/17 06:07:03;;;;;;;14.70;6.93;;;17.50;99.90;;;;;;5078512;28;20194;-69
2023/09/17 06:09:29;;;;;;;8.93;6.60;;;17.50;99.90;;;;;;5068652;28;20741;-69
2023/09/17 06:11:56;;;;;;;9.30;6.50;;;17.60;99.90;;;;;;5077464;28;20520;-69
2023/09/17 06:14:22;;;;;;;12.47;7.13;;;17.60;99.90;;;;;;5078087;28;20259;-69
2023/09/17 06:16:48;;;;;;;11.17;6.73;;;17.70;99.90;;;;;;5076588;28;20190;-69
2023/09/17 06:19:14;;;;;;;10.40;6.70;;;17.70;99.90;;;;;;5068483;28;20198;-70
2023/09/17 06:21:41;;;;;;;11.53;6.50;;;17.80;99.90;;;;;;5077578;28;20187;-69
2023/09/17 06:24:07;;;;;;;10.87;6.77;;;17.90;99.90;;;;;;5077361;28;20451;-69
2023/09/17 06:26:32;;;;;;;11.80;6.73;;;18.00;99.90;;;;;;5069260;28;20190;-69
2023/09/17 06:28:58;;;;;;;9.53;7.00;;;18.10;99.90;;;;;;5087294;28;20186;-69
2023/09/17 06:31:24;;;;;;;10.03;6.87;;;18.30;99.90;;;;;;5084788;28;20244;-69
2023/09/17 06:33:51;;;;;;;12.70;7.53;;;18.40;99.90;;;;;;5083817;28;20215;-69
2023/09/17 06:36:16;;;;;;;10.00;7.20;;;18.50;99.90;;;;;;5085519;28;20680;-69
2023/09/17 06:38:42;;;;;;;11.47;7.40;;;18.80;99.90;;;;;;5092552;28;20206;-69
2023/09/17 06:41:08;;;;;;;11.47;6.60;;;19.00;99.90;;;;;;5072775;28;20645;-69
2023/09/17 06:43:33;;;;;;;10.53;6.30;;;19.30;99.90;;;;;;5072751;28;20196;-70
2023/09/17 06:45:59;;;;;;;10.13;6.17;;;19.40;99.90;;;;;;5091578;28;20210;-69
2023/09/17 06:48:25;;;;;;;14.87;7.17;;;19.50;99.90;;;;;;5086883;28;20613;-69
2023/09/17 06:50:51;;;;;;;10.07;7.07;;;19.60;99.90;;;;;;5072255;28;20214;-69
2023/09/17 06:53:17;;;;;;;9.60;6.40;;;19.70;99.90;;;;;;5077272;28;20235;-69
2023/09/17 06:55:42;;;;;;;13.87;6.83;;;19.80;99.90;;;;;;5084477;28;20237;-69
2023/09/17 06:58:08;;;;;;;15.17;6.33;;;19.90;99.90;;;;;;5083609;28;20185;-69
2023/09/17 07:00:35;;;;;;;10.90;6.53;;;20.10;99.90;;;;;;5077674;28;20183;-69
2023/09/17 07:03:01;;;;;;;12.70;6.17;;;20.20;99.90;;;;;;5083130;28;20192;-69
2023/09/17 07:05:27;;;;;;;10.00;6.63;;;20.40;99.90;;;;;;5078230;28;20206;-69
2023/09/17 07:07:53;;;;;;;9.93;7.37;;;20.70;99.90;;;;;;5089538;28;20596;-69
2023/09/17 07:10:19;;;;;;;9.97;6.27;;;20.90;99.90;;;;;;5079419;28;20210;-70
2023/09/17 07:12:44;;;;;;;9.70;6.73;;;21.10;99.90;;;;;;5079573;28;20190;-69
2023/09/17 07:15:11;;;;;;;10.43;6.40;;;21.20;99.90;;;;;;5075153;28;20236;-69
2023/09/17 07:17:38;;;;;;;9.00;6.37;;;21.50;99.90;;;;;;5076085;28;20195;-69
2023/09/17 07:20:05;;;;;;;8.40;5.67;;;21.60;99.90;;;;;;5080223;28;20593;-69
2023/09/17 07:22:31;;;;;;;13.17;6.10;;;21.80;99.90;;;;;;5086766;28;20193;-69
2023/09/17 07:24:58;;;;;;;11.83;5.67;;;22.10;99.90;;;;;;5075330;28;20199;-69
2023/09/17 07:27:29;;;;;;;7.97;5.60;;;22.40;99.90;;;;;;5086768;28;20602;-69
2023/09/17 07:29:56;;;;;;;6.73;5.50;;;22.60;99.90;;;;;;5080100;28;20268;-69
2023/09/17 07:32:25;;;;;;;11.30;5.60;;;22.70;99.90;;;;;;5085507;28;20261;-70
2023/09/17 07:34:50;;;;;;;8.50;5.07;;;22.80;99.90;;;;;;5083610;28;20293;-69
2023/09/17 07:37:18;;;;;;;8.00;5.77;;;22.90;99.90;;;;;;5087639;28;20207;-69
2023/09/17 07:39:46;;;;;;;6.63;5.33;;;23.10;99.90;;;;;;5079466;28;20184;-70
2023/09/17 07:42:12;;;;;;;9.30;5.30;;;23.40;99.90;;;;;;5083052;28;20183;-70
2023/09/17 07:44:38;;;;;;;9.20;5.60;;;23.60;99.90;;;;;;5084385;28;20270;-70
2023/09/17 07:47:06;;;;;;;13.17;5.70;;;23.70;99.90;;;;;;5079833;28;20188;-70
2023/09/17 07:49:32;;;;;;;8.47;5.40;;;23.90;99.90;;;;;;5077235;28;20188;-70
2023/09/17 07:51:57;;;;;;;9.27;5.03;;;24.00;99.90;;;;;;5089726;28;20208;-70
2023/09/17 07:54:23;;;;;;;9.47;5.53;;;24.10;99.90;;;;;;5076659;28;20572;-70
2023/09/17 07:56:49;;;;;;;7.83;4.97;;;24.30;99.90;;;;;;5082601;28;20206;-70
2023/09/17 07:59:14;;;;;;;7.77;4.43;;;24.70;99.90;;;;;;5075159;28;20189;-70
2023/09/17 08:01:40;;;;;;;6.60;4.57;;;24.90;99.90;;;;;;5075459;28;20190;-70
2023/09/17 08:04:05;;;;;;;9.27;5.13;;;25.50;99.90;;;;;;5070976;28;20274;-70
2023/09/17 08:06:34;;;;;;;8.90;4.43;;;26.00;99.90;;;;;;5079399;28;20225;-70
2023/09/17 08:09:00;;;;;;;8.30;4.37;;;26.40;99.90;;;;;;5072303;28;20267;-70
2023/09/17 08:11:29;;;;;;;5.33;4.27;;;27.00;99.90;;;;;;5086769;28;20234;-70
2023/09/17 08:13:55;;;;;;;5.73;4.50;;;27.00;99.90;;;;;;5088358;28;20678;-70
2023/09/17 08:16:21;;;;;;;7.87;4.57;;;27.50;99.90;;;;;;5078423;28;20290;-71
2023/09/17 08:18:46;;;;;;;5.50;4.37;;;28.00;99.90;;;;;;5078335;28;20195;-70
2023/09/17 08:21:12;;;;;;;7.83;4.47;;;27.60;99.90;;;;;;5070616;28;20192;-71
2023/09/17 08:23:38;;;;;;;6.50;4.27;;;28.20;99.90;;;;;;5070799;28;20224;-70
2023/09/17 08:26:05;;;;;;;9.73;4.93;;;28.90;99.90;;;;;;5087395;28;20206;-71
2023/09/17 08:28:30;;;;;;;7.77;4.27;;;29.40;99.90;;;;;;5070185;28;20175;-71
2023/09/17 08:30:56;;;;;;;10.70;4.53;;;29.40;99.90;;;;;;5070661;28;20210;-71
2023/09/17 08:33:21;;;;;;;5.57;4.60;;;29.00;99.90;;;;;;5079052;28;20236;-72
2023/09/17 08:35:47;;;;;;;6.17;4.17;;;28.80;99.90;;;;;;5086836;28;20322;-71
2023/09/17 08:38:12;;;;;;;7.07;4.17;;;28.70;99.90;;;;;;5073870;28;20231;-70
2023/09/17 08:40:39;;;;;;;5.43;4.10;;;29.00;99.90;;;;;;5075105;28;20198;-70
2023/09/17 08:43:05;;;;;;;9.30;4.40;;;29.30;99.90;;;;;;5073088;28;20181;-71
2023/09/17 08:45:31;;;;;;;5.80;4.07;;;29.30;99.90;;;;;;5075840;28;20742;-71
2023/09/17 08:47:58;;;;;;;5.83;4.10;;;29.40;99.90;;;;;;5079639;28;20512;-69
2023/09/17 08:50:25;;;;;;;7.60;4.00;;;29.70;99.90;;;;;;5084726;28;20214;-70
2023/09/17 08:52:56;;;;;;;5.00;4.03;;;29.60;99.90;;;;;;5078464;28;20722;-70
2023/09/17 08:55:23;;;;;;;11.53;4.40;;;29.80;99.90;;;;;;5075393;28;20189;-70
2023/09/17 08:57:58;;;;;;;5.70;4.23;;;29.90;99.90;;;;;;5081165;28;20213;-70
2023/09/17 09:00:26;;;;;;;5.87;4.07;;;29.70;99.90;;;;;;5075722;28;20197;-70
2023/09/17 09:02:58;;;;;;;8.80;4.10;;;29.80;99.90;;;;;;5081144;28;20328;-70
2023/09/17 09:05:27;;;;;;;7.17;4.10;;;29.90;99.90;;;;;;5075234;28;20204;-69
2023/09/17 09:07:55;;;;;;;7.53;4.10;;;30.40;99.90;;;;;;5072961;28;20178;-70
2023/09/17 09:10:22;;;;;;;6.83;4.00;;;30.50;99.90;;;;;;5081852;28;20291;-70
2023/09/17 09:12:49;;;;;;;4.70;3.63;;;30.30;99.90;;;;;;5081770;28;20260;-69
2023/09/17 09:15:15;;;;;;;7.57;4.47;;;30.10;99.90;;;;;;5077838;28;20190;-69
2023/09/17 09:17:41;;;;;;;6.37;3.80;;;30.40;99.90;;;;;;5077833;28;20209;-68
2023/09/17 09:20:16;;;;;;;8.07;4.07;;;30.40;99.90;;;;;;5078196;28;20214;-68
2023/09/17 09:22:43;;;;;;;6.93;3.53;;;30.10;99.90;;;;;;5086103;28;20185;-67
2023/09/17 09:25:13;;;;;;;9.97;3.80;;;29.40;99.90;;;;;;5073163;28;20329;-69
2023/09/17 09:27:38;;;;;;;8.23;3.53;;;29.80;99.90;;;;;;5082238;28;20261;-67
2023/09/17 09:30:14;;;;;;;8.63;4.00;;;30.00;99.90;;;;;;5080347;28;20285;-68
2023/09/17 09:32:41;;;;;;;8.53;3.43;;;30.40;99.90;;;;;;5080435;28;20707;-70
2023/09/17 09:35:08;;;;;;;6.73;3.80;;;30.10;99.90;;;;;;5081244;28;20209;-68
2023/09/17 09:37:34;;;;;;;5.87;3.47;;;30.30;99.90;;;;;;5079644;28;20235;-71
2023/09/17 09:40:00;;;;;;;4.87;3.80;;;30.90;99.90;;;;;;5070900;28;20190;-68
2023/09/17 09:42:26;;;;;;;6.83;3.53;;;30.90;99.90;;;;;;5069638;28;20622;-70
2023/09/17 09:44:53;;;;;;;5.60;3.87;;;31.40;99.90;;;;;;5086175;28;20206;-70
2023/09/17 09:47:23;;;;;;;8.27;3.60;;;31.40;99.90;;;;;;5070047;28;20528;-68
2023/09/17 09:49:49;;;;;;;8.13;3.57;;;31.30;99.90;;;;;;5085618;28;20181;-69
2023/09/17 09:52:16;;;;;;;9.30;3.67;;;31.80;99.90;;;;;;5081196;28;20660;-69
2023/09/17 09:54:43;;;;;;;5.72;3.20;;;32.30;99.90;;;;;;5080772;28;20298;-67
2023/09/17 09:57:11;;;;;;;5.85;3.22;;;32.50;99.90;;;;;;5080680;28;20589;-68
2023/09/17 09:59:37;;;;;;;4.88;3.22;;;32.40;99.90;;;;;;5089073;28;20174;-68
2023/09/17 10:02:04;;;;;;;13.60;3.70;;;31.90;99.90;;;;;;5087337;28;20184;-68
2023/09/17 10:04:30;;;;;;;5.47;3.30;;;31.80;99.90;;;;;;5069578;28;20410;-68
2023/09/17 10:06:56;;;;;;;9.63;3.55;;;31.90;99.90;;;;;;5074586;28;20531;-69
2023/09/17 10:09:25;;;;;;;5.63;3.28;;;32.30;99.90;;;;;;5079894;28;20504;-68
2023/09/17 10:11:54;;;;;;;5.78;3.28;;;33.00;99.90;;;;;;5081505;28;20210;-70
2023/09/17 10:14:24;;;;;;;5.93;3.22;;;33.30;99.90;;;;;;5081974;28;20178;-68
2023/09/17 10:16:50;;;;;;;4.30;3.10;;;33.30;99.90;;;;;;5089173;28;20180;-68
2023/09/17 10:19:20;;;;;;;4.20;2.92;;;33.30;99.90;;;;;;5076664;28;20239;-70
2023/09/17 10:21:47;;;;;;;4.72;2.90;;;33.30;99.90;;;;;;5076995;28;20176;-69
2023/09/17 10:24:15;;;;;;;8.02;3.17;;;32.90;99.90;;;;;;5072856;28;20232;-70
2023/09/17 10:26:42;;;;;;;5.45;3.42;;;32.60;99.90;;;;;;5079717;28;20208;-70
2023/09/17 10:29:13;;;;;;;8.73;3.17;;;32.30;99.90;;;;;;5072994;28;20182;-70
2023/09/17 10:31:40;;;;;;;6.05;3.00;;;32.30;99.90;;;;;;5080255;28;20236;-70
2023/09/17 10:34:08;;;;;;;6.78;2.75;;;32.30;99.90;;;;;;5073593;28;20226;-69
2023/09/17 10:36:37;;;;;;;4.75;2.40;;;32.50;99.90;;;;;;5081233;28;20641;-69
2023/09/17 10:39:06;;;;;;;6.07;2.70;;;32.50;99.90;;;;;;5088929;28;20693;-70
2023/09/17 10:41:36;;;;;;;7.75;2.75;;;32.00;99.90;;;;;;5077677;28;20276;-70
2023/09/17 10:44:03;;;;;;;4.78;2.58;;;32.30;99.90;;;;;;5072617;28;20208;-70
2023/09/17 10:46:31;;;;;;;5.68;2.88;;;32.40;99.90;;;;;;5087041;28;20213;-71
2023/09/17 10:48:58;;;;;;;8.02;2.72;;;32.10;99.90;;;;;;5075481;28;20183;-69
2023/09/17 10:51:25;;;;;;;4.22;2.80;;;32.20;99.90;;;;;;5079432;28;20567;-68
2023/09/17 10:53:50;;;;;;;5.80;2.75;;;31.90;99.90;;;;;;5081560;28;20187;-68
2023/09/17 10:56:17;;;;;;;5.03;2.83;;;31.40;99.90;;;;;;5080444;28;20194;-70
2023/09/17 10:58:45;;;;;;;6.68;2.92;;;31.60;99.90;;;;;;5088190;28;20675;-70
2023/09/17 11:01:14;;;;;;;5.85;2.60;;;31.30;99.90;;;;;;5081075;28;20178;-70
2023/09/17 11:03:44;;;;;;;4.40;2.53;;;31.20;99.90;;;;;;5072908;28;20205;-70
2023/09/17 11:06:16;;;;;;;3.90;2.70;;;30.50;99.90;;;;;;5075451;28;20198;-70
2023/09/17 11:08:46;;;;;;;4.87;2.60;;;30.50;99.90;;;;;;5092074;28;20198;-70
2023/09/17 11:11:16;;;;;;;3.33;2.30;;;30.30;99.90;;;;;;5072262;28;20207;-70
2023/09/17 11:13:46;;;;;;;3.67;2.50;;;30.30;99.90;;;;;;5088297;28;20176;-68
2023/09/17 11:16:30;;;;;;;2.60;2.10;;;30.50;99.90;;;;;;5086659;28;20194;-70
2023/09/17 11:19:14;;;;;;;4.53;2.33;;;30.00;99.90;;;;;;5079909;28;20250;-70
2023/09/17 11:21:47;;;;;;;5.03;2.40;;;29.50;99.90;;;;;;5086314;28;20178;-70
2023/09/17 11:24:13;;;;;;;5.33;2.77;;;29.40;99.90;;;;;;5083983;28;20689;-65
2023/09/17 11:26:44;;;;;;;3.67;2.50;;;29.30;99.90;;;;;;5083906;28;20273;-68
2023/09/17 11:29:10;;;;;;;5.97;3.30;;;29.20;99.90;;;;;;5079931;28;20260;-71
2023/09/17 11:31:59;;;;;;;6.17;2.80;;;29.20;99.90;;;;;;5078663;28;20233;-71
2023/09/17 11:34:25;;;;;;;4.87;2.60;;;29.70;99.90;;;;;;5070390;28;20205;-69
2023/09/17 11:36:52;;;;;;;4.97;2.57;;;30.00;99.90;;;;;;5083387;28;20178;-71
2023/09/17 11:39:21;;;;;;;3.80;2.70;;;30.20;99.90;;;;;;5078722;28;20544;-71
2023/09/17 11:41:52;;;;;;;4.07;2.47;;;30.30;99.90;;;;;;5054644;28;20621;-72
2023/09/17 11:44:20;;;;;;;5.40;3.03;;;30.60;99.90;;;;;;5064017;28;20185;-72
2023/09/17 11:46:46;;;;;;;4.43;2.93;;;30.80;99.90;;;;;;5071561;28;20186;-71
2023/09/17 11:49:11;;;;;;;8.43;3.73;;;30.50;99.90;;;;;;5079158;28;20185;-71
2023/09/17 11:51:47;;;;;;;4.97;3.90;;;30.10;99.90;;;;;;5079733;28;20289;-71
2023/09/17 11:54:18;;;;;;;5.13;2.80;;;29.90;99.90;;;;;;5074661;28;20188;-70
2023/09/17 11:56:53;;;;;;;7.83;2.93;;;30.00;99.90;;;;;;5083946;28;20581;-67
2023/09/17 11:59:20;;;;;;;6.20;2.83;;;30.00;99.90;;;;;;5079275;28;20174;-68
2023/09/17 12:01:49;;;;;;;3.77;2.80;;;30.00;99.90;;;;;;5071127;28;20170;-71
2023/09/17 12:04:16;;;;;;;6.37;2.50;;;30.40;99.90;;;;;;5078210;28;20673;-71
2023/09/17 12:06:44;;;;;;;5.33;2.83;;;30.20;99.90;;;;;;5078141;28;20684;-70
2023/09/17 12:10:00;;;;;;;5.27;2.67;;;30.30;99.90;;;;;;5078831;28;20637;-71
2023/09/17 12:11:56;;;;;;;10.17;2.70;;;30.30;99.90;;;;;;5062888;28;20272;-70
2023/09/17 12:14:22;;;;;;;3.23;2.10;;;30.30;99.90;;;;;;5082979;28;20223;-71
2023/09/17 12:16:49;;;;;;;3.30;2.20;;;30.10;99.90;;;;;;5073867;28;20597;-71
2023/09/17 12:19:16;;;;;;;3.87;2.40;;;30.20;99.90;;;;;;5065731;28;20193;-71
2023/09/17 12:21:41;;;;;;;5.60;2.53;;;30.20;99.90;;;;;;5075438;28;20239;-70
2023/09/17 12:24:17;;;;;;;3.97;2.90;;;29.90;99.90;;;;;;5079100;28;20179;-71
2023/09/17 12:26:52;;;;;;;6.77;2.53;;;29.50;99.90;;;;;;5070803;28;20180;-70
2023/09/17 12:29:18;;;;;;;7.57;2.73;;;29.40;99.90;;;;;;5070806;28;20530;-71
2023/09/17 12:31:44;;;;;;;5.30;2.50;;;29.30;99.90;;;;;;5078275;28;20208;-71
2023/09/17 12:34:10;;;;;;;9.07;2.90;;;29.40;99.90;;;;;;5079422;28;20178;-72
2023/09/17 12:36:36;;;;;;;9.33;2.90;;;29.70;99.90;;;;;;5070650;28;20181;-71
2023/09/17 12:39:02;;;;;;;4.60;2.37;;;30.00;99.90;;;;;;5086539;28;20269;-71
2023/09/17 12:41:28;;;;;;;4.43;2.70;;;30.00;99.90;;;;;;5079017;28;20268;-70
2023/09/17 12:43:53;;;;;;;4.27;2.67;;;30.10;99.90;;;;;;5078703;28;20311;-71